sensor_id;sensor_type;location;lat;lon;timestamp;P1;durP1;ratioP1;P2;durP2;ratioP2
62616;SDS011;62539;51.190;6.808;2022-11-06T00:02:18;2.83;;;1.70;;
62616;SDS011;62539;51.190;6.808;2022-11-06T00:04:43;3.17;;;1.92;;
62616;SDS011;62539;51.190;6.808;2022-11-06T00:07:09;9.15;;;1.55;;
62616;SDS011;62539;51.190;6.808;2022-11-06T00:09:34;2.05;;;1.40;;
62616;SDS011;62539;51.190;6.808;2022-11-06T00:11:59;4.63;;;1.90;;
62616;SDS011;62539;51.190;6.808;2022-11-06T00:14:25;1.67;;;1.42;;
62616;SDS011;62539;51.190;6.808;2022-11-06T00:16:50;8.52;;;1.60;;
62616;SDS011;62539;51.190;6.808;2022-11-06T00:19:16;1.90;;;1.60;;
62616;SDS011;62539;51.190;6.808;2022-11-06T00:21:41;3.42;;;1.70;;
62616;SDS011;62539;51.190;6.808;2022-11-06T00:24:08;4.35;;;1.73;;
62616;SDS011;62539;51.190;6.808;2022-11-06T00:26:36;2.17;;;1.40;;
62616;SDS011;62539;51.190;6.808;2022-11-06T00:29:02;2.47;;;1.45;;
62616;SDS011;62539;51.190;6.808;2022-11-06T00:31:30;4.63;;;1.50;;
62616;SDS011;62539;51.190;6.808;2022-11-06T00:34:01;4.10;;;1.63;;
62616;SDS011;62539;51.190;6.808;2022-11-06T00:36:28;2.90;;;1.63;;
62616;SDS011;62539;51.190;6.808;2022-11-06T00:38:55;2.80;;;1.55;;
62616;SDS011;62539;51.190;6.808;2022-11-06T00:41:22;2.95;;;1.67;;
62616;SDS011;62539;51.190;6.808;2022-11-06T00:43:49;2.65;;;1.50;;
62616;SDS011;62539;51.190;6.808;2022-11-06T00:46:20;3.15;;;1.60;;
62616;SDS011;62539;51.190;6.808;2022-11-06T00:48:46;1.77;;;1.52;;
62616;SDS011;62539;51.190;6.808;2022-11-06T00:51:13;3.42;;;1.60;;
62616;SDS011;62539;51.190;6.808;2022-11-06T00:53:42;8.07;;;1.43;;
62616;SDS011;62539;51.190;6.808;2022-11-06T00:56:10;4.93;;;1.55;;
62616;SDS011;62539;51.190;6.808;2022-11-06T00:58:38;1.35;;;1.25;;
62616;SDS011;62539;51.190;6.808;2022-11-06T01:01:09;2.63;;;1.50;;
62616;SDS011;62539;51.190;6.808;2022-11-06T01:03:38;3.70;;;1.58;;
62616;SDS011;62539;51.190;6.808;2022-11-06T01:06:09;2.90;;;1.45;;
62616;SDS011;62539;51.190;6.808;2022-11-06T01:08:39;1.85;;;1.55;;
62616;SDS011;62539;51.190;6.808;2022-11-06T01:11:11;2.00;;;1.60;;
62616;SDS011;62539;51.190;6.808;2022-11-06T01:13:48;3.10;;;1.67;;
62616;SDS011;62539;51.190;6.808;2022-11-06T01:16:17;3.88;;;1.73;;
62616;SDS011;62539;51.190;6.808;2022-11-06T01:18:44;3.28;;;1.52;;
62616;SDS011;62539;51.190;6.808;2022-11-06T01:21:12;2.92;;;1.40;;
62616;SDS011;62539;51.190;6.808;2022-11-06T01:23:44;2.60;;;1.45;;
62616;SDS011;62539;51.190;6.808;2022-11-06T01:26:10;2.55;;;1.67;;
62616;SDS011;62539;51.190;6.808;2022-11-06T01:28:38;2.15;;;1.23;;
62616;SDS011;62539;51.190;6.808;2022-11-06T01:31:07;1.50;;;1.33;;
62616;SDS011;62539;51.190;6.808;2022-11-06T01:33:38;2.38;;;1.60;;
62616;SDS011;62539;51.190;6.808;2022-11-06T01:36:04;2.33;;;1.75;;
62616;SDS011;62539;51.190;6.808;2022-11-06T01:38:33;1.65;;;1.50;;
62616;SDS011;62539;51.190;6.808;2022-11-06T01:40:59;5.65;;;1.58;;
62616;SDS011;62539;51.190;6.808;2022-11-06T01:43:41;1.75;;;1.45;;
62616;SDS011;62539;51.190;6.808;2022-11-06T01:46:18;1.77;;;1.45;;
62616;SDS011;62539;51.190;6.808;2022-11-06T01:48:48;1.33;;;1.23;;
62616;SDS011;62539;51.190;6.808;2022-11-06T01:51:20;1.45;;;1.30;;
62616;SDS011;62539;51.190;6.808;2022-11-06T01:53:49;1.40;;;1.30;;
62616;SDS011;62539;51.190;6.808;2022-11-06T01:56:16;1.88;;;1.20;;
62616;SDS011;62539;51.190;6.808;2022-11-06T01:58:45;2.67;;;1.50;;
62616;SDS011;62539;51.190;6.808;2022-11-06T02:01:14;2.20;;;1.50;;
62616;SDS011;62539;51.190;6.808;2022-11-06T02:03:44;2.53;;;1.38;;
62616;SDS011;62539;51.190;6.808;2022-11-06T02:06:20;2.33;;;1.70;;
62616;SDS011;62539;51.190;6.808;2022-11-06T02:08:46;2.08;;;1.50;;
62616;SDS011;62539;51.190;6.808;2022-11-06T02:11:12;1.35;;;1.15;;
62616;SDS011;62539;51.190;6.808;2022-11-06T02:19:56;3.20;;;1.20;;
62616;SDS011;62539;51.190;6.808;2022-11-06T02:22:37;2.47;;;1.50;;
62616;SDS011;62539;51.190;6.808;2022-11-06T02:28:58;2.97;;;1.50;;
62616;SDS011;62539;51.190;6.808;2022-11-06T02:31:32;1.45;;;1.25;;
62616;SDS011;62539;51.190;6.808;2022-11-06T02:34:05;3.35;;;1.70;;
62616;SDS011;62539;51.190;6.808;2022-11-06T02:36:39;3.10;;;1.70;;
62616;SDS011;62539;51.190;6.808;2022-11-06T02:39:15;2.53;;;1.45;;
62616;SDS011;62539;51.190;6.808;2022-11-06T02:41:46;2.40;;;1.40;;
62616;SDS011;62539;51.190;6.808;2022-11-06T02:44:17;3.47;;;1.70;;
62616;SDS011;62539;51.190;6.808;2022-11-06T02:46:49;4.43;;;1.48;;
62616;SDS011;62539;51.190;6.808;2022-11-06T02:51:56;2.22;;;1.17;;
62616;SDS011;62539;51.190;6.808;2022-11-06T02:54:28;2.67;;;1.38;;
62616;SDS011;62539;51.190;6.808;2022-11-06T02:57:02;1.48;;;1.17;;
62616;SDS011;62539;51.190;6.808;2022-11-06T03:02:40;2.15;;;1.35;;
62616;SDS011;62539;51.190;6.808;2022-11-06T03:05:35;2.17;;;1.55;;
62616;SDS011;62539;51.190;6.808;2022-11-06T03:08:13;1.80;;;1.40;;
62616;SDS011;62539;51.190;6.808;2022-11-06T03:17:08;5.93;;;1.42;;
62616;SDS011;62539;51.190;6.808;2022-11-06T03:28:26;1.10;;;1.00;;
62616;SDS011;62539;51.190;6.808;2022-11-06T03:31:00;1.70;;;1.05;;
62616;SDS011;62539;51.190;6.808;2022-11-06T03:33:48;1.20;;;1.10;;
62616;SDS011;62539;51.190;6.808;2022-11-06T03:36:22;1.60;;;1.17;;
62616;SDS011;62539;51.190;6.808;2022-11-06T03:38:51;1.98;;;1.33;;
62616;SDS011;62539;51.190;6.808;2022-11-06T03:41:26;2.30;;;1.20;;
62616;SDS011;62539;51.190;6.808;2022-11-06T03:44:03;1.90;;;1.30;;
62616;SDS011;62539;51.190;6.808;2022-11-06T03:46:35;1.80;;;1.30;;
62616;SDS011;62539;51.190;6.808;2022-11-06T03:49:09;2.00;;;1.35;;
62616;SDS011;62539;51.190;6.808;2022-11-06T03:54:26;1.63;;;1.25;;
62616;SDS011;62539;51.190;6.808;2022-11-06T03:57:10;2.75;;;1.30;;
62616;SDS011;62539;51.190;6.808;2022-11-06T03:59:43;1.85;;;1.20;;
62616;SDS011;62539;51.190;6.808;2022-11-06T04:02:18;1.30;;;1.20;;
62616;SDS011;62539;51.190;6.808;2022-11-06T04:04:50;1.60;;;1.23;;
62616;SDS011;62539;51.190;6.808;2022-11-06T04:07:24;3.05;;;1.17;;
62616;SDS011;62539;51.190;6.808;2022-11-06T04:09:58;1.38;;;1.08;;
62616;SDS011;62539;51.190;6.808;2022-11-06T04:12:48;1.42;;;1.10;;
62616;SDS011;62539;51.190;6.808;2022-11-06T04:15:36;3.20;;;1.17;;
62616;SDS011;62539;51.190;6.808;2022-11-06T04:18:11;1.60;;;1.02;;
62616;SDS011;62539;51.190;6.808;2022-11-06T04:20:41;1.30;;;1.20;;
62616;SDS011;62539;51.190;6.808;2022-11-06T04:30:28;1.17;;;1.08;;
62616;SDS011;62539;51.190;6.808;2022-11-06T04:33:01;1.80;;;1.05;;
62616;SDS011;62539;51.190;6.808;2022-11-06T04:38:50;1.65;;;1.25;;
62616;SDS011;62539;51.190;6.808;2022-11-06T04:41:19;2.17;;;1.48;;
62616;SDS011;62539;51.190;6.808;2022-11-06T04:44:07;1.85;;;1.05;;
62616;SDS011;62539;51.190;6.808;2022-11-06T04:46:42;1.75;;;1.20;;
62616;SDS011;62539;51.190;6.808;2022-11-06T04:49:16;1.38;;;1.10;;
62616;SDS011;62539;51.190;6.808;2022-11-06T04:51:44;1.70;;;1.20;;
62616;SDS011;62539;51.190;6.808;2022-11-06T04:54:11;1.83;;;1.20;;
62616;SDS011;62539;51.190;6.808;2022-11-06T04:56:38;1.73;;;1.50;;
62616;SDS011;62539;51.190;6.808;2022-11-06T04:59:04;1.40;;;1.30;;
62616;SDS011;62539;51.190;6.808;2022-11-06T05:01:30;1.48;;;1.13;;
62616;SDS011;62539;51.190;6.808;2022-11-06T05:03:56;4.80;;;1.42;;
62616;SDS011;62539;51.190;6.808;2022-11-06T05:06:21;1.73;;;1.10;;
62616;SDS011;62539;51.190;6.808;2022-11-06T05:08:47;1.83;;;1.10;;
62616;SDS011;62539;51.190;6.808;2022-11-06T05:11:12;1.58;;;1.10;;
62616;SDS011;62539;51.190;6.808;2022-11-06T05:13:38;1.10;;;1.00;;
62616;SDS011;62539;51.190;6.808;2022-11-06T05:16:03;2.17;;;1.27;;
62616;SDS011;62539;51.190;6.808;2022-11-06T05:18:29;1.38;;;1.15;;
62616;SDS011;62539;51.190;6.808;2022-11-06T05:21:01;1.27;;;0.95;;
62616;SDS011;62539;51.190;6.808;2022-11-06T05:23:46;3.47;;;1.10;;
62616;SDS011;62539;51.190;6.808;2022-11-06T05:26:12;1.80;;;1.10;;
62616;SDS011;62539;51.190;6.808;2022-11-06T05:28:38;1.67;;;1.30;;
62616;SDS011;62539;51.190;6.808;2022-11-06T05:31:04;1.45;;;1.17;;
62616;SDS011;62539;51.190;6.808;2022-11-06T05:33:29;1.70;;;1.08;;
62616;SDS011;62539;51.190;6.808;2022-11-06T05:35:55;1.50;;;1.08;;
62616;SDS011;62539;51.190;6.808;2022-11-06T05:38:25;1.10;;;1.00;;
62616;SDS011;62539;51.190;6.808;2022-11-06T05:40:50;3.85;;;1.10;;
62616;SDS011;62539;51.190;6.808;2022-11-06T05:43:15;1.30;;;1.00;;
62616;SDS011;62539;51.190;6.808;2022-11-06T05:45:41;1.65;;;1.25;;
62616;SDS011;62539;51.190;6.808;2022-11-06T05:48:06;1.10;;;1.00;;
62616;SDS011;62539;51.190;6.808;2022-11-06T05:50:31;0.80;;;0.80;;
62616;SDS011;62539;51.190;6.808;2022-11-06T05:52:58;1.23;;;1.00;;
62616;SDS011;62539;51.190;6.808;2022-11-06T05:55:24;1.90;;;1.20;;
62616;SDS011;62539;51.190;6.808;2022-11-06T05:57:49;2.30;;;0.90;;
62616;SDS011;62539;51.190;6.808;2022-11-06T06:00:15;1.20;;;1.00;;
62616;SDS011;62539;51.190;6.808;2022-11-06T06:02:40;1.52;;;0.90;;
62616;SDS011;62539;51.190;6.808;2022-11-06T06:05:07;2.35;;;1.17;;
62616;SDS011;62539;51.190;6.808;2022-11-06T06:07:33;1.50;;;1.00;;
62616;SDS011;62539;51.190;6.808;2022-11-06T06:09:59;1.27;;;1.10;;
62616;SDS011;62539;51.190;6.808;2022-11-06T06:12:24;1.33;;;1.00;;
62616;SDS011;62539;51.190;6.808;2022-11-06T06:14:50;1.20;;;1.10;;
62616;SDS011;62539;51.190;6.808;2022-11-06T06:17:19;3.33;;;1.20;;
62616;SDS011;62539;51.190;6.808;2022-11-06T06:19:46;1.27;;;1.00;;
62616;SDS011;62539;51.190;6.808;2022-11-06T06:22:12;1.45;;;1.10;;
62616;SDS011;62539;51.190;6.808;2022-11-06T06:24:38;1.95;;;0.88;;
62616;SDS011;62539;51.190;6.808;2022-11-06T06:27:03;1.42;;;0.98;;
62616;SDS011;62539;51.190;6.808;2022-11-06T06:29:29;2.00;;;0.88;;
62616;SDS011;62539;51.190;6.808;2022-11-06T06:31:54;1.10;;;0.90;;
62616;SDS011;62539;51.190;6.808;2022-11-06T06:34:19;1.30;;;0.88;;
62616;SDS011;62539;51.190;6.808;2022-11-06T06:36:49;1.90;;;1.08;;
62616;SDS011;62539;51.190;6.808;2022-11-06T06:39:15;1.25;;;1.00;;
62616;SDS011;62539;51.190;6.808;2022-11-06T06:41:43;1.25;;;1.15;;
62616;SDS011;62539;51.190;6.808;2022-11-06T06:44:09;1.40;;;0.95;;
62616;SDS011;62539;51.190;6.808;2022-11-06T06:46:34;1.15;;;0.98;;
62616;SDS011;62539;51.190;6.808;2022-11-06T06:49:00;2.30;;;0.98;;
62616;SDS011;62539;51.190;6.808;2022-11-06T06:51:25;1.70;;;1.00;;
62616;SDS011;62539;51.190;6.808;2022-11-06T06:53:51;1.73;;;1.00;;
62616;SDS011;62539;51.190;6.808;2022-11-06T06:56:16;1.20;;;0.93;;
62616;SDS011;62539;51.190;6.808;2022-11-06T06:58:42;1.00;;;0.80;;
62616;SDS011;62539;51.190;6.808;2022-11-06T07:01:08;1.10;;;0.90;;
62616;SDS011;62539;51.190;6.808;2022-11-06T07:03:35;2.20;;;1.05;;
62616;SDS011;62539;51.190;6.808;2022-11-06T07:06:04;1.00;;;0.90;;
62616;SDS011;62539;51.190;6.808;2022-11-06T07:08:31;0.90;;;0.80;;
62616;SDS011;62539;51.190;6.808;2022-11-06T07:11:07;1.40;;;0.90;;
62616;SDS011;62539;51.190;6.808;2022-11-06T07:13:35;1.00;;;0.90;;
62616;SDS011;62539;51.190;6.808;2022-11-06T07:16:02;2.03;;;1.10;;
62616;SDS011;62539;51.190;6.808;2022-11-06T07:18:30;2.00;;;0.90;;
62616;SDS011;62539;51.190;6.808;2022-11-06T07:20:56;1.85;;;1.08;;
62616;SDS011;62539;51.190;6.808;2022-11-06T07:23:21;0.80;;;0.80;;
62616;SDS011;62539;51.190;6.808;2022-11-06T07:25:53;1.58;;;1.10;;
62616;SDS011;62539;51.190;6.808;2022-11-06T07:28:19;1.00;;;0.85;;
62616;SDS011;62539;51.190;6.808;2022-11-06T07:30:45;2.60;;;1.02;;
62616;SDS011;62539;51.190;6.808;2022-11-06T07:33:11;2.08;;;1.02;;
62616;SDS011;62539;51.190;6.808;2022-11-06T07:35:36;2.88;;;0.93;;
62616;SDS011;62539;51.190;6.808;2022-11-06T07:38:03;1.00;;;0.90;;
62616;SDS011;62539;51.190;6.808;2022-11-06T07:40:31;0.95;;;0.85;;
62616;SDS011;62539;51.190;6.808;2022-11-06T07:43:07;1.85;;;1.00;;
62616;SDS011;62539;51.190;6.808;2022-11-06T07:45:35;2.45;;;0.90;;
62616;SDS011;62539;51.190;6.808;2022-11-06T07:48:02;1.30;;;0.90;;
62616;SDS011;62539;51.190;6.808;2022-11-06T07:50:29;2.22;;;1.10;;
62616;SDS011;62539;51.190;6.808;2022-11-06T07:52:56;0.95;;;0.85;;
62616;SDS011;62539;51.190;6.808;2022-11-06T07:55:22;1.98;;;0.90;;
62616;SDS011;62539;51.190;6.808;2022-11-06T07:57:47;1.20;;;0.80;;
62616;SDS011;62539;51.190;6.808;2022-11-06T08:00:13;0.80;;;0.80;;
62616;SDS011;62539;51.190;6.808;2022-11-06T08:02:40;0.85;;;0.75;;
62616;SDS011;62539;51.190;6.808;2022-11-06T08:05:06;2.67;;;0.90;;
62616;SDS011;62539;51.190;6.808;2022-11-06T08:07:32;1.15;;;0.80;;
62616;SDS011;62539;51.190;6.808;2022-11-06T08:09:57;3.13;;;1.08;;
62616;SDS011;62539;51.190;6.808;2022-11-06T08:12:23;3.95;;;0.90;;
62616;SDS011;62539;51.190;6.808;2022-11-06T08:14:48;2.75;;;0.90;;
62616;SDS011;62539;51.190;6.808;2022-11-06T08:17:13;2.22;;;1.15;;
62616;SDS011;62539;51.190;6.808;2022-11-06T08:19:39;1.10;;;0.98;;
62616;SDS011;62539;51.190;6.808;2022-11-06T08:22:04;1.70;;;0.85;;
62616;SDS011;62539;51.190;6.808;2022-11-06T08:24:30;7.95;;;1.00;;
62616;SDS011;62539;51.190;6.808;2022-11-06T08:26:56;3.25;;;1.23;;
62616;SDS011;62539;51.190;6.808;2022-11-06T08:29:23;7.00;;;1.70;;
62616;SDS011;62539;51.190;6.808;2022-11-06T08:31:48;7.00;;;1.77;;
62616;SDS011;62539;51.190;6.808;2022-11-06T08:34:13;6.75;;;1.50;;
62616;SDS011;62539;51.190;6.808;2022-11-06T08:36:40;8.15;;;1.27;;
62616;SDS011;62539;51.190;6.808;2022-11-06T08:39:09;6.15;;;1.20;;
62616;SDS011;62539;51.190;6.808;2022-11-06T08:41:36;7.18;;;1.55;;
62616;SDS011;62539;51.190;6.808;2022-11-06T08:44:03;5.53;;;1.13;;
62616;SDS011;62539;51.190;6.808;2022-11-06T08:46:28;2.95;;;1.10;;
62616;SDS011;62539;51.190;6.808;2022-11-06T08:48:54;3.90;;;1.00;;
62616;SDS011;62539;51.190;6.808;2022-11-06T08:51:19;4.28;;;1.38;;
62616;SDS011;62539;51.190;6.808;2022-11-06T08:53:45;3.83;;;1.30;;
62616;SDS011;62539;51.190;6.808;2022-11-06T08:56:10;4.72;;;1.20;;
62616;SDS011;62539;51.190;6.808;2022-11-06T08:58:36;4.43;;;1.33;;
62616;SDS011;62539;51.190;6.808;2022-11-06T09:01:01;6.57;;;1.10;;
62616;SDS011;62539;51.190;6.808;2022-11-06T09:03:26;4.85;;;1.00;;
62616;SDS011;62539;51.190;6.808;2022-11-06T09:05:52;4.95;;;1.20;;
62616;SDS011;62539;51.190;6.808;2022-11-06T09:08:17;6.03;;;1.20;;
62616;SDS011;62539;51.190;6.808;2022-11-06T09:10:44;3.55;;;1.70;;
62616;SDS011;62539;51.190;6.808;2022-11-06T09:13:10;3.58;;;1.27;;
62616;SDS011;62539;51.190;6.808;2022-11-06T09:15:36;6.68;;;1.70;;
62616;SDS011;62539;51.190;6.808;2022-11-06T09:18:02;3.50;;;1.40;;
62616;SDS011;62539;51.190;6.808;2022-11-06T09:20:28;6.85;;;1.13;;
62616;SDS011;62539;51.190;6.808;2022-11-06T09:22:53;4.63;;;1.08;;
62616;SDS011;62539;51.190;6.808;2022-11-06T09:25:24;1.63;;;1.00;;
62616;SDS011;62539;51.190;6.808;2022-11-06T09:27:50;4.57;;;1.20;;
62616;SDS011;62539;51.190;6.808;2022-11-06T09:30:19;2.55;;;1.02;;
62616;SDS011;62539;51.190;6.808;2022-11-06T09:32:48;6.95;;;1.23;;
62616;SDS011;62539;51.190;6.808;2022-11-06T09:35:23;6.07;;;1.10;;
62616;SDS011;62539;51.190;6.808;2022-11-06T09:37:50;2.40;;;1.17;;
62616;SDS011;62539;51.190;6.808;2022-11-06T09:40:20;4.80;;;1.10;;
62616;SDS011;62539;51.190;6.808;2022-11-06T09:46:28;6.75;;;1.40;;
62616;SDS011;62539;51.190;6.808;2022-11-06T09:52:03;4.95;;;1.10;;
62616;SDS011;62539;51.190;6.808;2022-11-06T09:54:34;3.25;;;1.17;;
62616;SDS011;62539;51.190;6.808;2022-11-06T09:57:20;1.20;;;0.90;;
62616;SDS011;62539;51.190;6.808;2022-11-06T09:59:53;4.03;;;1.40;;
62616;SDS011;62539;51.190;6.808;2022-11-06T10:02:26;4.00;;;1.25;;
62616;SDS011;62539;51.190;6.808;2022-11-06T10:07:55;5.20;;;1.83;;
62616;SDS011;62539;51.190;6.808;2022-11-06T10:13:44;2.88;;;1.27;;
62616;SDS011;62539;51.190;6.808;2022-11-06T10:19:33;3.80;;;1.17;;
62616;SDS011;62539;51.190;6.808;2022-11-06T10:22:15;3.17;;;1.20;;
62616;SDS011;62539;51.190;6.808;2022-11-06T10:25:35;4.28;;;1.15;;
62616;SDS011;62539;51.190;6.808;2022-11-06T10:27:59;5.72;;;1.30;;
62616;SDS011;62539;51.190;6.808;2022-11-06T10:30:39;4.97;;;1.40;;
62616;SDS011;62539;51.190;6.808;2022-11-06T10:33:22;3.97;;;1.20;;
62616;SDS011;62539;51.190;6.808;2022-11-06T10:36:16;3.17;;;1.13;;
62616;SDS011;62539;51.190;6.808;2022-11-06T10:38:53;3.13;;;1.13;;
62616;SDS011;62539;51.190;6.808;2022-11-06T10:41:23;3.80;;;1.05;;
62616;SDS011;62539;51.190;6.808;2022-11-06T10:47:02;5.43;;;1.30;;
62616;SDS011;62539;51.190;6.808;2022-11-06T10:49:43;3.42;;;1.05;;
62616;SDS011;62539;51.190;6.808;2022-11-06T10:52:20;2.15;;;1.00;;
62616;SDS011;62539;51.190;6.808;2022-11-06T10:57:55;5.05;;;1.15;;
62616;SDS011;62539;51.190;6.808;2022-11-06T11:00:27;1.45;;;0.90;;
62616;SDS011;62539;51.190;6.808;2022-11-06T11:02:56;4.10;;;1.20;;
62616;SDS011;62539;51.190;6.808;2022-11-06T11:05:26;3.55;;;1.30;;
62616;SDS011;62539;51.190;6.808;2022-11-06T11:08:03;4.35;;;1.15;;
62616;SDS011;62539;51.190;6.808;2022-11-06T11:10:36;3.17;;;1.00;;
62616;SDS011;62539;51.190;6.808;2022-11-06T11:13:03;5.03;;;1.50;;
62616;SDS011;62539;51.190;6.808;2022-11-06T11:15:30;7.45;;;1.25;;
62616;SDS011;62539;51.190;6.808;2022-11-06T11:20:35;6.90;;;1.48;;
62616;SDS011;62539;51.190;6.808;2022-11-06T11:23:09;4.55;;;1.15;;
62616;SDS011;62539;51.190;6.808;2022-11-06T11:25:40;6.60;;;1.80;;
62616;SDS011;62539;51.190;6.808;2022-11-06T11:28:12;5.90;;;1.40;;
62616;SDS011;62539;51.190;6.808;2022-11-06T11:31:09;4.97;;;1.00;;
62616;SDS011;62539;51.190;6.808;2022-11-06T11:33:38;6.82;;;1.40;;
62616;SDS011;62539;51.190;6.808;2022-11-06T11:36:13;2.63;;;1.33;;
62616;SDS011;62539;51.190;6.808;2022-11-06T11:38:39;3.72;;;1.02;;
62616;SDS011;62539;51.190;6.808;2022-11-06T11:41:07;9.80;;;1.33;;
62616;SDS011;62539;51.190;6.808;2022-11-06T11:43:54;5.63;;;1.75;;
62616;SDS011;62539;51.190;6.808;2022-11-06T11:46:29;7.40;;;1.42;;
62616;SDS011;62539;51.190;6.808;2022-11-06T11:48:56;4.07;;;1.20;;
62616;SDS011;62539;51.190;6.808;2022-11-06T11:51:25;6.78;;;1.35;;
62616;SDS011;62539;51.190;6.808;2022-11-06T11:56:46;8.75;;;1.27;;
62616;SDS011;62539;51.190;6.808;2022-11-06T11:59:27;4.03;;;1.23;;
62616;SDS011;62539;51.190;6.808;2022-11-06T12:02:10;6.10;;;1.17;;
62616;SDS011;62539;51.190;6.808;2022-11-06T12:04:45;4.22;;;1.30;;
62616;SDS011;62539;51.190;6.808;2022-11-06T12:07:24;6.00;;;1.33;;
62616;SDS011;62539;51.190;6.808;2022-11-06T12:09:54;5.60;;;1.30;;
62616;SDS011;62539;51.190;6.808;2022-11-06T12:12:22;3.28;;;1.15;;
62616;SDS011;62539;51.190;6.808;2022-11-06T12:17:43;1.40;;;0.70;;
62616;SDS011;62539;51.190;6.808;2022-11-06T12:20:19;2.75;;;0.95;;
62616;SDS011;62539;51.190;6.808;2022-11-06T12:22:52;3.50;;;1.00;;
62616;SDS011;62539;51.190;6.808;2022-11-06T12:25:22;1.92;;;0.82;;
62616;SDS011;62539;51.190;6.808;2022-11-06T12:27:58;3.30;;;0.90;;
62616;SDS011;62539;51.190;6.808;2022-11-06T12:30:26;5.43;;;1.20;;
62616;SDS011;62539;51.190;6.808;2022-11-06T12:33:05;3.58;;;1.00;;
62616;SDS011;62539;51.190;6.808;2022-11-06T12:35:47;2.70;;;0.90;;
62616;SDS011;62539;51.190;6.808;2022-11-06T12:38:25;1.55;;;0.80;;
62616;SDS011;62539;51.190;6.808;2022-11-06T12:41:25;1.52;;;1.00;;
62616;SDS011;62539;51.190;6.808;2022-11-06T12:43:54;2.28;;;0.82;;
62616;SDS011;62539;51.190;6.808;2022-11-06T12:52:14;3.60;;;1.30;;
62616;SDS011;62539;51.190;6.808;2022-11-06T13:20:55;1.92;;;0.93;;
62616;SDS011;62539;51.190;6.808;2022-11-06T13:23:30;2.28;;;1.17;;
62616;SDS011;62539;51.190;6.808;2022-11-06T13:29:11;1.63;;;1.02;;
62616;SDS011;62539;51.190;6.808;2022-11-06T13:31:51;2.50;;;0.95;;
62616;SDS011;62539;51.190;6.808;2022-11-06T13:34:26;7.35;;;0.98;;
62616;SDS011;62539;51.190;6.808;2022-11-06T13:36:56;3.58;;;1.20;;
62616;SDS011;62539;51.190;6.808;2022-11-06T13:39:37;2.28;;;1.10;;
62616;SDS011;62539;51.190;6.808;2022-11-06T13:42:21;3.42;;;1.20;;
62616;SDS011;62539;51.190;6.808;2022-11-06T13:44:53;3.85;;;1.05;;
62616;SDS011;62539;51.190;6.808;2022-11-06T13:47:24;0.70;;;0.70;;
62616;SDS011;62539;51.190;6.808;2022-11-06T13:50:24;1.75;;;1.05;;
62616;SDS011;62539;51.190;6.808;2022-11-06T13:52:59;2.83;;;1.10;;
62616;SDS011;62539;51.190;6.808;2022-11-06T14:01:59;1.92;;;1.10;;
62616;SDS011;62539;51.190;6.808;2022-11-06T14:11:14;2.60;;;1.00;;
62616;SDS011;62539;51.190;6.808;2022-11-06T14:13:41;2.05;;;1.00;;
62616;SDS011;62539;51.190;6.808;2022-11-06T14:16:25;1.80;;;0.73;;
62616;SDS011;62539;51.190;6.808;2022-11-06T14:19:30;2.75;;;0.95;;
62616;SDS011;62539;51.190;6.808;2022-11-06T14:24:50;3.05;;;1.10;;
62616;SDS011;62539;51.190;6.808;2022-11-06T14:29:55;2.08;;;1.15;;
62616;SDS011;62539;51.190;6.808;2022-11-06T14:34:56;1.55;;;1.00;;
62616;SDS011;62539;51.190;6.808;2022-11-06T14:42:59;1.55;;;0.80;;
62616;SDS011;62539;51.190;6.808;2022-11-06T14:45:24;2.47;;;1.13;;
62616;SDS011;62539;51.190;6.808;2022-11-06T14:47:53;2.05;;;0.82;;
62616;SDS011;62539;51.190;6.808;2022-11-06T14:53:15;1.77;;;0.70;;
62616;SDS011;62539;51.190;6.808;2022-11-06T14:55:57;8.20;;;1.52;;
62616;SDS011;62539;51.190;6.808;2022-11-06T15:03:41;13.13;;;1.67;;
62616;SDS011;62539;51.190;6.808;2022-11-06T15:19:01;13.75;;;1.52;;
62616;SDS011;62539;51.190;6.808;2022-11-06T15:21:30;6.18;;;1.80;;
62616;SDS011;62539;51.190;6.808;2022-11-06T15:24:07;10.90;;;1.30;;
62616;SDS011;62539;51.190;6.808;2022-11-06T15:26:47;12.50;;;1.42;;
62616;SDS011;62539;51.190;6.808;2022-11-06T15:29:20;8.90;;;1.50;;
62616;SDS011;62539;51.190;6.808;2022-11-06T15:31:53;2.47;;;1.00;;
62616;SDS011;62539;51.190;6.808;2022-11-06T15:34:36;8.48;;;1.50;;
62616;SDS011;62539;51.190;6.808;2022-11-06T15:37:09;5.07;;;1.30;;
62616;SDS011;62539;51.190;6.808;2022-11-06T15:39:42;7.13;;;1.50;;
62616;SDS011;62539;51.190;6.808;2022-11-06T15:42:19;9.60;;;1.50;;
62616;SDS011;62539;51.190;6.808;2022-11-06T15:44:49;9.32;;;1.50;;
62616;SDS011;62539;51.190;6.808;2022-11-06T15:52:36;6.75;;;1.30;;
62616;SDS011;62539;51.190;6.808;2022-11-06T15:55:02;6.10;;;1.27;;
62616;SDS011;62539;51.190;6.808;2022-11-06T15:57:28;3.58;;;1.50;;
62616;SDS011;62539;51.190;6.808;2022-11-06T16:02:58;6.35;;;1.77;;
62616;SDS011;62539;51.190;6.808;2022-11-06T16:05:26;3.33;;;1.48;;
62616;SDS011;62539;51.190;6.808;2022-11-06T16:07:55;5.05;;;1.10;;
62616;SDS011;62539;51.190;6.808;2022-11-06T16:10:24;12.88;;;2.42;;
62616;SDS011;62539;51.190;6.808;2022-11-06T16:12:51;11.00;;;1.48;;
62616;SDS011;62539;51.190;6.808;2022-11-06T16:18:10;8.73;;;1.63;;
62616;SDS011;62539;51.190;6.808;2022-11-06T16:20:46;5.45;;;1.40;;
62616;SDS011;62539;51.190;6.808;2022-11-06T16:23:17;9.57;;;1.50;;
62616;SDS011;62539;51.190;6.808;2022-11-06T16:25:55;10.85;;;1.50;;
62616;SDS011;62539;51.190;6.808;2022-11-06T16:28:24;8.55;;;1.40;;
62616;SDS011;62539;51.190;6.808;2022-11-06T16:30:53;5.43;;;1.30;;
62616;SDS011;62539;51.190;6.808;2022-11-06T16:33:38;7.43;;;1.48;;
62616;SDS011;62539;51.190;6.808;2022-11-06T16:36:07;15.27;;;1.65;;
62616;SDS011;62539;51.190;6.808;2022-11-06T16:38:39;16.70;;;1.45;;
62616;SDS011;62539;51.190;6.808;2022-11-06T16:41:08;12.05;;;1.88;;
62616;SDS011;62539;51.190;6.808;2022-11-06T16:43:36;11.45;;;1.83;;
62616;SDS011;62539;51.190;6.808;2022-11-06T16:46:03;8.75;;;1.40;;
62616;SDS011;62539;51.190;6.808;2022-11-06T16:51:27;2.88;;;1.00;;
62616;SDS011;62539;51.190;6.808;2022-11-06T16:53:57;13.50;;;1.77;;
62616;SDS011;62539;51.190;6.808;2022-11-06T16:56:29;5.90;;;1.70;;
62616;SDS011;62539;51.190;6.808;2022-11-06T16:59:00;6.70;;;1.38;;
62616;SDS011;62539;51.190;6.808;2022-11-06T17:01:35;7.25;;;1.35;;
62616;SDS011;62539;51.190;6.808;2022-11-06T17:04:04;8.52;;;1.35;;
62616;SDS011;62539;51.190;6.808;2022-11-06T17:06:34;5.30;;;1.33;;
62616;SDS011;62539;51.190;6.808;2022-11-06T17:11:51;6.35;;;1.65;;
62616;SDS011;62539;51.190;6.808;2022-11-06T17:14:19;5.20;;;1.42;;
62616;SDS011;62539;51.190;6.808;2022-11-06T17:16:47;5.78;;;1.20;;
62616;SDS011;62539;51.190;6.808;2022-11-06T17:19:16;3.17;;;1.30;;
62616;SDS011;62539;51.190;6.808;2022-11-06T17:21:43;3.72;;;1.65;;
62616;SDS011;62539;51.190;6.808;2022-11-06T17:24:09;6.05;;;1.55;;
62616;SDS011;62539;51.190;6.808;2022-11-06T17:26:35;7.63;;;1.35;;
62616;SDS011;62539;51.190;6.808;2022-11-06T17:29:08;4.05;;;1.35;;
62616;SDS011;62539;51.190;6.808;2022-11-06T17:31:35;3.83;;;1.35;;
62616;SDS011;62539;51.190;6.808;2022-11-06T17:34:00;8.55;;;1.52;;
62616;SDS011;62539;51.190;6.808;2022-11-06T17:36:27;2.15;;;1.08;;
62616;SDS011;62539;51.190;6.808;2022-11-06T17:38:54;2.75;;;0.93;;
62616;SDS011;62539;51.190;6.808;2022-11-06T17:41:22;10.52;;;1.38;;
62616;SDS011;62539;51.190;6.808;2022-11-06T17:44:03;6.63;;;1.30;;
62616;SDS011;62539;51.190;6.808;2022-11-06T17:46:34;5.50;;;1.25;;
62616;SDS011;62539;51.190;6.808;2022-11-06T17:51:29;3.15;;;1.20;;
62616;SDS011;62539;51.190;6.808;2022-11-06T17:54:14;3.75;;;1.30;;
62616;SDS011;62539;51.190;6.808;2022-11-06T17:56:42;4.13;;;1.30;;
62616;SDS011;62539;51.190;6.808;2022-11-06T17:59:08;4.22;;;2.35;;
62616;SDS011;62539;51.190;6.808;2022-11-06T18:01:35;3.83;;;1.27;;
62616;SDS011;62539;51.190;6.808;2022-11-06T18:04:00;4.45;;;1.17;;
62616;SDS011;62539;51.190;6.808;2022-11-06T18:06:26;3.08;;;1.10;;